Zhanjiang, China
Current Conditions -  °F | °C
As of 3:00 AM on Sunday 21 Dec 2014 (Local Time) from ZJHK Reporting Station
Haze Haze  
Wind Chill: 57°   Ceiling: Unl
Heat Index: 57°   Visibility: 1.8mi
Dew Point: 55°   Wind: 2mph
Humidity: 94%   Direction: 10°N
Pressure: 30.06"   Gusts: NA
Location:  21.2°N, 110.38°E
Report Text: ZJHK 201900Z 01001MPS 3000 BR NSC 14/13 Q1018 NOSIG
Loading
Personal Weather Stations






























Interactive Weather Map New forecast layout! Learn more

10-Day Weather Forecast

Advertisements
Track Severe Weather on mobile